METAR Data
IDs: Format: Raw Decoded Include TAF

Data at: 0128 UTC 25 Mar 2019

METAR for:LEBZ (Badajoz Arpt, --, SP)
Text:LEBZ 242000Z 10003KT 070V140 9999 FEW045 17/05 Q1019
Temperature: 17.0°C ( 63°F)
Dewpoint: 5.0°C ( 41°F) [RH = 45%]
Pressure (altimeter):30.09 inches Hg (1019.0 mb)
Winds:from the E (100 degrees) at 3 MPH (3 knots; 1.5 m/s)
Visibility:6 or more sm (10+ km)
Ceiling:at least 12,000 feet AGL
Clouds: few clouds at 4500 feet AGL

TAF for:LEBZ (Badajoz Arpt, --, SP) issued at 2300 UTC 24 Mar 2019
Text:TAF LEBZ 242300Z 2500/2524 VRB02KT CAVOK TX25/2515Z TN06/2506Z
Forecast period:0000 to 0800 UTC 25 March 2019
Forecast type:FROM: standard forecast or significant change
Winds:variable direction winds at 2 MPH (2 knots; 1.0 m/s)
Visibility:6 or more sm (10+ km)
Clouds:missing
Text:BECMG 2508/2511 07014KT
Forecast period:0800 to 1900 UTC 25 March 2019
Forecast type:BECOMING: Conditions expected to become as follows by 1100 UTC 25 March 2019
Winds:from the ENE (70 degrees) at 16 MPH (14 knots; 7.2 m/s)
Visibility:6 or more sm (10+ km)
Clouds:missing
Text:BECMG 2519/2522 05004KT
Forecast period:1900 UTC 25 March 2019 to 0000 UTC 26 March 2019
Forecast type:BECOMING: Conditions expected to become as follows by 2200 UTC 25 March 2019
Winds:from the NE (50 degrees) at 5 MPH (4 knots; 2.1 m/s)
Visibility:6 or more sm (10+ km)
Clouds:missing